sensor_id;sensor_type;location;lat;lon;timestamp;P1;durP1;ratioP1;P2;durP2;ratioP2
65210;SDS011;51794;52.758;55.792;2022-12-07T00:01:27;28.13;;;13.32;;
65210;SDS011;51794;52.758;55.792;2022-12-07T00:03:59;33.45;;;13.27;;
65210;SDS011;51794;52.758;55.792;2022-12-07T00:06:30;29.58;;;12.35;;
65210;SDS011;51794;52.758;55.792;2022-12-07T00:08:58;28.23;;;11.68;;
65210;SDS011;51794;52.758;55.792;2022-12-07T00:11:24;24.35;;;11.52;;
65210;SDS011;51794;52.758;55.792;2022-12-07T00:13:54;27.25;;;12.55;;
65210;SDS011;51794;52.758;55.792;2022-12-07T00:16:26;28.80;;;10.98;;
65210;SDS011;51794;52.758;55.792;2022-12-07T00:18:54;24.20;;;10.93;;
65210;SDS011;51794;52.758;55.792;2022-12-07T00:21:22;22.83;;;11.63;;
65210;SDS011;51794;52.758;55.792;2022-12-07T00:23:50;26.95;;;12.55;;
65210;SDS011;51794;52.758;55.792;2022-12-07T00:26:23;26.45;;;12.55;;
65210;SDS011;51794;52.758;55.792;2022-12-07T00:28:56;24.13;;;11.07;;
65210;SDS011;51794;52.758;55.792;2022-12-07T00:31:33;26.92;;;12.90;;
65210;SDS011;51794;52.758;55.792;2022-12-07T00:34:04;20.30;;;10.77;;
65210;SDS011;51794;52.758;55.792;2022-12-07T00:36:31;22.45;;;11.70;;
65210;SDS011;51794;52.758;55.792;2022-12-07T00:38:58;25.75;;;12.13;;
65210;SDS011;51794;52.758;55.792;2022-12-07T00:41:26;27.00;;;11.20;;
65210;SDS011;51794;52.758;55.792;2022-12-07T00:43:53;29.92;;;13.23;;
65210;SDS011;51794;52.758;55.792;2022-12-07T00:46:20;22.75;;;10.93;;
65210;SDS011;51794;52.758;55.792;2022-12-07T00:48:47;20.38;;;10.10;;
65210;SDS011;51794;52.758;55.792;2022-12-07T00:51:15;21.98;;;11.27;;
65210;SDS011;51794;52.758;55.792;2022-12-07T00:53:42;23.02;;;11.43;;
65210;SDS011;51794;52.758;55.792;2022-12-07T00:56:13;28.33;;;11.40;;
65210;SDS011;51794;52.758;55.792;2022-12-07T00:58:41;24.65;;;9.82;;
65210;SDS011;51794;52.758;55.792;2022-12-07T01:01:07;28.75;;;10.77;;
65210;SDS011;51794;52.758;55.792;2022-12-07T01:03:34;18.42;;;8.15;;
65210;SDS011;51794;52.758;55.792;2022-12-07T01:06:00;21.10;;;9.82;;
65210;SDS011;51794;52.758;55.792;2022-12-07T01:08:27;18.88;;;9.98;;
65210;SDS011;51794;52.758;55.792;2022-12-07T01:10:58;21.15;;;9.57;;
65210;SDS011;51794;52.758;55.792;2022-12-07T01:13:32;20.05;;;9.70;;
65210;SDS011;51794;52.758;55.792;2022-12-07T01:16:00;21.88;;;10.25;;
65210;SDS011;51794;52.758;55.792;2022-12-07T01:18:30;24.50;;;10.55;;
65210;SDS011;51794;52.758;55.792;2022-12-07T01:21:17;27.73;;;10.07;;
65210;SDS011;51794;52.758;55.792;2022-12-07T01:23:46;25.73;;;10.10;;
65210;SDS011;51794;52.758;55.792;2022-12-07T01:26:14;18.35;;;9.45;;
65210;SDS011;51794;52.758;55.792;2022-12-07T01:28:42;19.00;;;10.35;;
65210;SDS011;51794;52.758;55.792;2022-12-07T01:31:09;21.42;;;11.35;;
65210;SDS011;51794;52.758;55.792;2022-12-07T01:33:37;24.95;;;11.93;;
65210;SDS011;51794;52.758;55.792;2022-12-07T01:36:05;21.08;;;10.00;;
65210;SDS011;51794;52.758;55.792;2022-12-07T01:38:33;21.50;;;10.52;;
65210;SDS011;51794;52.758;55.792;2022-12-07T01:40:59;24.30;;;10.43;;
65210;SDS011;51794;52.758;55.792;2022-12-07T01:43:27;22.35;;;11.05;;
65210;SDS011;51794;52.758;55.792;2022-12-07T01:45:55;22.55;;;10.45;;
65210;SDS011;51794;52.758;55.792;2022-12-07T01:48:24;22.60;;;10.02;;
65210;SDS011;51794;52.758;55.792;2022-12-07T01:50:54;20.15;;;9.18;;
65210;SDS011;51794;52.758;55.792;2022-12-07T01:53:24;22.17;;;10.32;;
65210;SDS011;51794;52.758;55.792;2022-12-07T01:55:52;22.77;;;11.00;;
65210;SDS011;51794;52.758;55.792;2022-12-07T01:58:20;21.83;;;10.43;;
65210;SDS011;51794;52.758;55.792;2022-12-07T02:00:46;21.25;;;10.95;;
65210;SDS011;51794;52.758;55.792;2022-12-07T02:05:41;19.77;;;11.20;;
65210;SDS011;51794;52.758;55.792;2022-12-07T02:08:08;25.10;;;11.65;;
65210;SDS011;51794;52.758;55.792;2022-12-07T02:10:36;24.92;;;10.50;;
65210;SDS011;51794;52.758;55.792;2022-12-07T02:13:21;30.55;;;11.80;;
65210;SDS011;51794;52.758;55.792;2022-12-07T02:30:47;21.75;;;10.45;;
65210;SDS011;51794;52.758;55.792;2022-12-07T02:33:16;20.33;;;9.50;;
65210;SDS011;51794;52.758;55.792;2022-12-07T02:35:59;26.58;;;10.25;;
65210;SDS011;51794;52.758;55.792;2022-12-07T02:38:51;23.60;;;10.57;;
65210;SDS011;51794;52.758;55.792;2022-12-07T02:41:36;21.00;;;10.13;;
65210;SDS011;51794;52.758;55.792;2022-12-07T02:44:07;10.35;;;6.13;;
65210;SDS011;51794;52.758;55.792;2022-12-07T02:46:40;19.30;;;9.68;;
65210;SDS011;51794;52.758;55.792;2022-12-07T02:49:09;23.42;;;9.63;;
65210;SDS011;51794;52.758;55.792;2022-12-07T02:51:44;12.23;;;8.25;;
65210;SDS011;51794;52.758;55.792;2022-12-07T02:54:18;27.23;;;12.30;;
65210;SDS011;51794;52.758;55.792;2022-12-07T03:05:15;21.27;;;11.50;;
65210;SDS011;51794;52.758;55.792;2022-12-07T03:11:00;22.27;;;10.40;;
65210;SDS011;51794;52.758;55.792;2022-12-07T03:18:38;18.98;;;9.23;;
65210;SDS011;51794;52.758;55.792;2022-12-07T03:21:11;24.30;;;10.73;;
65210;SDS011;51794;52.758;55.792;2022-12-07T03:23:42;19.75;;;7.55;;
65210;SDS011;51794;52.758;55.792;2022-12-07T03:26:13;23.23;;;9.48;;
65210;SDS011;51794;52.758;55.792;2022-12-07T03:28:45;22.15;;;10.80;;
65210;SDS011;51794;52.758;55.792;2022-12-07T03:34:20;19.63;;;10.90;;
65210;SDS011;51794;52.758;55.792;2022-12-07T03:36:54;30.00;;;11.07;;
65210;SDS011;51794;52.758;55.792;2022-12-07T03:39:30;23.83;;;10.38;;
65210;SDS011;51794;52.758;55.792;2022-12-07T03:41:59;27.98;;;10.40;;
65210;SDS011;51794;52.758;55.792;2022-12-07T03:44:28;23.23;;;10.18;;
65210;SDS011;51794;52.758;55.792;2022-12-07T03:47:11;23.95;;;9.68;;
65210;SDS011;51794;52.758;55.792;2022-12-07T03:52:14;17.98;;;8.50;;
65210;SDS011;51794;52.758;55.792;2022-12-07T03:57:46;21.50;;;10.23;;
65210;SDS011;51794;52.758;55.792;2022-12-07T04:02:43;27.38;;;10.18;;
65210;SDS011;51794;52.758;55.792;2022-12-07T04:05:09;22.08;;;10.23;;
65210;SDS011;51794;52.758;55.792;2022-12-07T04:07:36;3.53;;;2.20;;
65210;SDS011;51794;52.758;55.792;2022-12-07T04:10:02;14.77;;;6.47;;
65210;SDS011;51794;52.758;55.792;2022-12-07T04:12:29;11.13;;;5.40;;
65210;SDS011;51794;52.758;55.792;2022-12-07T04:14:55;22.48;;;10.68;;
65210;SDS011;51794;52.758;55.792;2022-12-07T04:17:21;25.77;;;10.68;;
65210;SDS011;51794;52.758;55.792;2022-12-07T04:19:47;18.33;;;9.48;;
65210;SDS011;51794;52.758;55.792;2022-12-07T04:22:13;22.80;;;9.73;;
65210;SDS011;51794;52.758;55.792;2022-12-07T04:24:39;20.30;;;9.95;;
65210;SDS011;51794;52.758;55.792;2022-12-07T04:27:05;38.58;;;21.00;;
65210;SDS011;51794;52.758;55.792;2022-12-07T04:29:31;26.73;;;13.55;;
65210;SDS011;51794;52.758;55.792;2022-12-07T04:31:56;22.25;;;10.20;;
65210;SDS011;51794;52.758;55.792;2022-12-07T04:34:22;24.92;;;11.40;;
65210;SDS011;51794;52.758;55.792;2022-12-07T04:36:48;24.05;;;11.13;;
65210;SDS011;51794;52.758;55.792;2022-12-07T04:39:19;26.42;;;11.75;;
65210;SDS011;51794;52.758;55.792;2022-12-07T04:41:47;33.50;;;12.15;;
65210;SDS011;51794;52.758;55.792;2022-12-07T04:44:13;23.77;;;11.13;;
65210;SDS011;51794;52.758;55.792;2022-12-07T04:46:40;20.85;;;10.40;;
65210;SDS011;51794;52.758;55.792;2022-12-07T04:49:07;18.45;;;9.23;;
65210;SDS011;51794;52.758;55.792;2022-12-07T04:51:33;21.73;;;11.15;;
65210;SDS011;51794;52.758;55.792;2022-12-07T04:53:59;26.05;;;10.95;;
65210;SDS011;51794;52.758;55.792;2022-12-07T04:56:25;22.33;;;12.10;;
65210;SDS011;51794;52.758;55.792;2022-12-07T04:58:52;24.92;;;11.65;;
65210;SDS011;51794;52.758;55.792;2022-12-07T05:01:19;25.33;;;12.07;;
65210;SDS011;51794;52.758;55.792;2022-12-07T05:03:47;28.17;;;13.05;;
65210;SDS011;51794;52.758;55.792;2022-12-07T05:06:14;27.45;;;13.18;;
65210;SDS011;51794;52.758;55.792;2022-12-07T05:08:40;32.83;;;13.07;;
65210;SDS011;51794;52.758;55.792;2022-12-07T05:11:07;30.00;;;13.27;;
65210;SDS011;51794;52.758;55.792;2022-12-07T05:13:34;25.65;;;13.48;;
65210;SDS011;51794;52.758;55.792;2022-12-07T05:16:01;25.70;;;12.25;;
65210;SDS011;51794;52.758;55.792;2022-12-07T05:18:27;31.17;;;13.02;;
65210;SDS011;51794;52.758;55.792;2022-12-07T05:20:53;24.67;;;11.73;;
65210;SDS011;51794;52.758;55.792;2022-12-07T05:23:19;21.17;;;11.45;;
65210;SDS011;51794;52.758;55.792;2022-12-07T05:25:46;27.17;;;13.88;;
65210;SDS011;51794;52.758;55.792;2022-12-07T05:28:12;22.95;;;12.05;;
65210;SDS011;51794;52.758;55.792;2022-12-07T05:30:38;24.83;;;12.82;;
65210;SDS011;51794;52.758;55.792;2022-12-07T05:33:04;26.05;;;12.70;;
65210;SDS011;51794;52.758;55.792;2022-12-07T05:35:30;28.60;;;14.10;;
65210;SDS011;51794;52.758;55.792;2022-12-07T05:37:56;25.95;;;13.30;;
65210;SDS011;51794;52.758;55.792;2022-12-07T05:40:23;24.92;;;12.57;;
65210;SDS011;51794;52.758;55.792;2022-12-07T05:42:49;33.15;;;14.73;;
65210;SDS011;51794;52.758;55.792;2022-12-07T05:45:15;29.60;;;14.82;;
65210;SDS011;51794;52.758;55.792;2022-12-07T05:47:41;33.30;;;15.38;;
65210;SDS011;51794;52.758;55.792;2022-12-07T05:50:07;35.75;;;15.88;;
65210;SDS011;51794;52.758;55.792;2022-12-07T05:52:34;36.80;;;15.60;;
65210;SDS011;51794;52.758;55.792;2022-12-07T05:55:00;30.00;;;14.43;;
65210;SDS011;51794;52.758;55.792;2022-12-07T05:57:26;33.63;;;14.32;;
65210;SDS011;51794;52.758;55.792;2022-12-07T05:59:52;28.30;;;13.20;;
65210;SDS011;51794;52.758;55.792;2022-12-07T06:02:18;29.58;;;14.48;;
65210;SDS011;51794;52.758;55.792;2022-12-07T06:04:45;32.35;;;14.80;;
65210;SDS011;51794;52.758;55.792;2022-12-07T06:07:12;30.70;;;14.23;;
65210;SDS011;51794;52.758;55.792;2022-12-07T06:09:40;38.85;;;15.38;;
65210;SDS011;51794;52.758;55.792;2022-12-07T06:12:06;32.13;;;14.82;;
65210;SDS011;51794;52.758;55.792;2022-12-07T06:14:53;28.45;;;14.07;;
65210;SDS011;51794;52.758;55.792;2022-12-07T06:17:19;43.80;;;17.25;;
65210;SDS011;51794;52.758;55.792;2022-12-07T06:19:45;70.93;;;27.10;;
65210;SDS011;51794;52.758;55.792;2022-12-07T06:22:11;100.82;;;35.80;;
65210;SDS011;51794;52.758;55.792;2022-12-07T06:24:38;96.45;;;34.85;;
65210;SDS011;51794;52.758;55.792;2022-12-07T06:27:05;97.22;;;34.67;;
65210;SDS011;51794;52.758;55.792;2022-12-07T06:29:31;93.95;;;33.88;;
65210;SDS011;51794;52.758;55.792;2022-12-07T06:31:58;108.70;;;41.22;;
65210;SDS011;51794;52.758;55.792;2022-12-07T06:34:24;116.03;;;40.58;;
65210;SDS011;51794;52.758;55.792;2022-12-07T06:36:51;138.48;;;45.83;;
65210;SDS011;51794;52.758;55.792;2022-12-07T06:39:26;126.63;;;43.25;;
65210;SDS011;51794;52.758;55.792;2022-12-07T06:41:54;105.47;;;39.97;;
65210;SDS011;51794;52.758;55.792;2022-12-07T06:44:20;104.82;;;39.10;;
65210;SDS011;51794;52.758;55.792;2022-12-07T06:46:48;121.88;;;42.03;;
65210;SDS011;51794;52.758;55.792;2022-12-07T06:49:14;150.93;;;48.72;;
65210;SDS011;51794;52.758;55.792;2022-12-07T06:51:40;140.57;;;47.75;;
65210;SDS011;51794;52.758;55.792;2022-12-07T06:54:08;137.52;;;47.20;;
65210;SDS011;51794;52.758;55.792;2022-12-07T06:56:34;160.18;;;51.58;;
65210;SDS011;51794;52.758;55.792;2022-12-07T06:59:00;202.88;;;60.08;;
65210;SDS011;51794;52.758;55.792;2022-12-07T07:01:26;146.82;;;47.47;;
65210;SDS011;51794;52.758;55.792;2022-12-07T07:03:52;170.30;;;51.28;;
65210;SDS011;51794;52.758;55.792;2022-12-07T07:06:18;157.15;;;51.33;;
65210;SDS011;51794;52.758;55.792;2022-12-07T07:08:45;128.63;;;42.30;;
65210;SDS011;51794;52.758;55.792;2022-12-07T07:11:11;66.75;;;27.73;;
65210;SDS011;51794;52.758;55.792;2022-12-07T07:13:37;81.38;;;28.88;;
65210;SDS011;51794;52.758;55.792;2022-12-07T07:16:04;41.13;;;17.98;;
65210;SDS011;51794;52.758;55.792;2022-12-07T07:18:31;67.35;;;27.40;;
65210;SDS011;51794;52.758;55.792;2022-12-07T07:20:57;51.33;;;23.88;;
65210;SDS011;51794;52.758;55.792;2022-12-07T07:23:23;64.40;;;25.20;;
65210;SDS011;51794;52.758;55.792;2022-12-07T07:25:50;59.88;;;26.80;;
65210;SDS011;51794;52.758;55.792;2022-12-07T07:28:16;60.80;;;24.80;;
65210;SDS011;51794;52.758;55.792;2022-12-07T07:30:42;68.22;;;27.33;;
65210;SDS011;51794;52.758;55.792;2022-12-07T07:33:09;50.70;;;22.65;;
65210;SDS011;51794;52.758;55.792;2022-12-07T07:35:35;51.10;;;22.35;;
65210;SDS011;51794;52.758;55.792;2022-12-07T07:38:02;49.50;;;21.05;;
65210;SDS011;51794;52.758;55.792;2022-12-07T07:40:28;47.75;;;21.42;;
65210;SDS011;51794;52.758;55.792;2022-12-07T07:42:55;38.80;;;18.00;;
65210;SDS011;51794;52.758;55.792;2022-12-07T07:45:22;41.33;;;20.30;;
65210;SDS011;51794;52.758;55.792;2022-12-07T07:47:50;53.33;;;22.27;;
65210;SDS011;51794;52.758;55.792;2022-12-07T07:50:16;54.10;;;23.85;;
65210;SDS011;51794;52.758;55.792;2022-12-07T07:52:43;54.47;;;21.85;;
65210;SDS011;51794;52.758;55.792;2022-12-07T07:55:09;56.58;;;23.45;;
65210;SDS011;51794;52.758;55.792;2022-12-07T07:57:36;53.50;;;23.75;;
65210;SDS011;51794;52.758;55.792;2022-12-07T08:00:07;54.88;;;23.17;;
65210;SDS011;51794;52.758;55.792;2022-12-07T08:02:39;55.75;;;23.15;;
65210;SDS011;51794;52.758;55.792;2022-12-07T08:05:05;52.80;;;23.38;;
65210;SDS011;51794;52.758;55.792;2022-12-07T08:07:31;46.08;;;22.13;;
65210;SDS011;51794;52.758;55.792;2022-12-07T08:09:57;42.40;;;21.48;;
65210;SDS011;51794;52.758;55.792;2022-12-07T08:12:23;44.20;;;19.27;;
65210;SDS011;51794;52.758;55.792;2022-12-07T08:14:49;37.88;;;18.98;;
65210;SDS011;51794;52.758;55.792;2022-12-07T08:17:15;39.78;;;20.23;;
65210;SDS011;51794;52.758;55.792;2022-12-07T08:19:41;33.83;;;16.10;;
65210;SDS011;51794;52.758;55.792;2022-12-07T08:22:07;35.95;;;16.55;;
65210;SDS011;51794;52.758;55.792;2022-12-07T08:24:34;46.15;;;19.10;;
65210;SDS011;51794;52.758;55.792;2022-12-07T08:27:00;43.15;;;20.90;;
65210;SDS011;51794;52.758;55.792;2022-12-07T08:29:26;40.55;;;19.48;;
65210;SDS011;51794;52.758;55.792;2022-12-07T08:31:52;45.05;;;21.15;;
65210;SDS011;51794;52.758;55.792;2022-12-07T08:34:18;42.97;;;20.05;;
65210;SDS011;51794;52.758;55.792;2022-12-07T08:36:44;42.20;;;18.88;;
65210;SDS011;51794;52.758;55.792;2022-12-07T08:39:10;52.50;;;22.23;;
65210;SDS011;51794;52.758;55.792;2022-12-07T08:41:36;51.15;;;22.08;;
65210;SDS011;51794;52.758;55.792;2022-12-07T08:44:02;46.83;;;21.15;;
65210;SDS011;51794;52.758;55.792;2022-12-07T08:51:29;41.30;;;17.27;;
65210;SDS011;51794;52.758;55.792;2022-12-07T08:53:55;19.85;;;11.23;;
65210;SDS011;51794;52.758;55.792;2022-12-07T08:56:24;27.77;;;12.65;;
65210;SDS011;51794;52.758;55.792;2022-12-07T08:58:50;28.60;;;13.75;;
65210;SDS011;51794;52.758;55.792;2022-12-07T09:01:17;27.00;;;12.30;;
65210;SDS011;51794;52.758;55.792;2022-12-07T09:03:43;22.23;;;11.68;;
65210;SDS011;51794;52.758;55.792;2022-12-07T09:06:09;26.00;;;12.32;;
65210;SDS011;51794;52.758;55.792;2022-12-07T09:08:46;23.45;;;11.65;;
65210;SDS011;51794;52.758;55.792;2022-12-07T09:11:15;24.00;;;12.60;;
65210;SDS011;51794;52.758;55.792;2022-12-07T09:13:41;24.73;;;11.90;;
65210;SDS011;51794;52.758;55.792;2022-12-07T09:16:07;24.30;;;10.77;;
65210;SDS011;51794;52.758;55.792;2022-12-07T09:18:33;19.98;;;10.07;;
65210;SDS011;51794;52.758;55.792;2022-12-07T09:20:59;23.35;;;11.20;;
65210;SDS011;51794;52.758;55.792;2022-12-07T09:23:25;23.48;;;9.38;;
65210;SDS011;51794;52.758;55.792;2022-12-07T09:25:51;19.48;;;9.55;;
65210;SDS011;51794;52.758;55.792;2022-12-07T09:28:17;20.58;;;9.88;;
65210;SDS011;51794;52.758;55.792;2022-12-07T09:30:46;20.30;;;9.02;;
65210;SDS011;51794;52.758;55.792;2022-12-07T09:33:12;20.35;;;9.70;;
65210;SDS011;51794;52.758;55.792;2022-12-07T09:35:43;16.92;;;9.57;;
65210;SDS011;51794;52.758;55.792;2022-12-07T09:38:10;18.80;;;8.50;;
65210;SDS011;51794;52.758;55.792;2022-12-07T09:40:36;17.95;;;8.82;;
65210;SDS011;51794;52.758;55.792;2022-12-07T09:43:02;19.23;;;9.35;;
65210;SDS011;51794;52.758;55.792;2022-12-07T09:45:35;13.93;;;6.50;;
65210;SDS011;51794;52.758;55.792;2022-12-07T09:48:02;18.73;;;9.77;;
65210;SDS011;51794;52.758;55.792;2022-12-07T09:50:29;23.10;;;10.65;;
65210;SDS011;51794;52.758;55.792;2022-12-07T09:53:02;20.10;;;10.13;;
65210;SDS011;51794;52.758;55.792;2022-12-07T09:55:35;16.83;;;8.30;;
65210;SDS011;51794;52.758;55.792;2022-12-07T09:58:03;20.35;;;11.00;;
65210;SDS011;51794;52.758;55.792;2022-12-07T10:00:29;26.77;;;14.05;;
65210;SDS011;51794;52.758;55.792;2022-12-07T10:02:56;29.48;;;15.63;;
65210;SDS011;51794;52.758;55.792;2022-12-07T10:05:27;32.22;;;13.88;;
65210;SDS011;51794;52.758;55.792;2022-12-07T10:07:56;29.27;;;14.55;;
65210;SDS011;51794;52.758;55.792;2022-12-07T10:10:40;30.50;;;14.05;;
65210;SDS011;51794;52.758;55.792;2022-12-07T10:13:07;29.77;;;13.98;;
65210;SDS011;51794;52.758;55.792;2022-12-07T10:15:45;29.45;;;14.15;;
65210;SDS011;51794;52.758;55.792;2022-12-07T10:18:25;32.28;;;13.38;;
65210;SDS011;51794;52.758;55.792;2022-12-07T10:20:59;31.92;;;14.93;;
65210;SDS011;51794;52.758;55.792;2022-12-07T10:23:32;26.80;;;13.95;;
65210;SDS011;51794;52.758;55.792;2022-12-07T10:25:58;32.38;;;15.30;;
65210;SDS011;51794;52.758;55.792;2022-12-07T10:28:27;32.08;;;15.57;;
65210;SDS011;51794;52.758;55.792;2022-12-07T10:31:02;24.83;;;10.43;;
65210;SDS011;51794;52.758;55.792;2022-12-07T10:41:25;25.30;;;12.27;;
65210;SDS011;51794;52.758;55.792;2022-12-07T10:43:55;34.60;;;13.82;;
65210;SDS011;51794;52.758;55.792;2022-12-07T10:59:41;27.92;;;13.07;;
65210;SDS011;51794;52.758;55.792;2022-12-07T11:02:31;29.95;;;13.82;;
65210;SDS011;51794;52.758;55.792;2022-12-07T11:21:56;20.80;;;8.90;;
65210;SDS011;51794;52.758;55.792;2022-12-07T11:24:25;16.90;;;8.40;;
65210;SDS011;51794;52.758;55.792;2022-12-07T11:30:17;12.02;;;5.13;;
65210;SDS011;51794;52.758;55.792;2022-12-07T11:33:15;10.95;;;5.85;;
65210;SDS011;51794;52.758;55.792;2022-12-07T11:38:16;12.70;;;6.20;;
65210;SDS011;51794;52.758;55.792;2022-12-07T11:40:47;14.32;;;6.10;;
65210;SDS011;51794;52.758;55.792;2022-12-07T11:46:14;12.25;;;6.07;;
65210;SDS011;51794;52.758;55.792;2022-12-07T11:51:51;13.50;;;6.30;;
65210;SDS011;51794;52.758;55.792;2022-12-07T11:54:23;15.45;;;7.32;;
65210;SDS011;51794;52.758;55.792;2022-12-07T11:56:59;19.00;;;7.22;;
65210;SDS011;51794;52.758;55.792;2022-12-07T11:59:36;14.10;;;6.63;;
65210;SDS011;51794;52.758;55.792;2022-12-07T12:02:13;14.43;;;6.82;;
65210;SDS011;51794;52.758;55.792;2022-12-07T12:04:54;13.43;;;7.85;;
65210;SDS011;51794;52.758;55.792;2022-12-07T12:07:25;23.17;;;10.68;;
65210;SDS011;51794;52.758;55.792;2022-12-07T12:09:58;32.85;;;13.45;;
65210;SDS011;51794;52.758;55.792;2022-12-07T12:12:40;29.77;;;12.52;;
65210;SDS011;51794;52.758;55.792;2022-12-07T12:15:29;29.88;;;12.27;;
65210;SDS011;51794;52.758;55.792;2022-12-07T12:18:06;23.23;;;12.50;;
65210;SDS011;51794;52.758;55.792;2022-12-07T12:21:00;27.35;;;12.93;;
65210;SDS011;51794;52.758;55.792;2022-12-07T12:23:51;27.58;;;11.13;;
65210;SDS011;51794;52.758;55.792;2022-12-07T12:26:25;16.50;;;7.50;;
65210;SDS011;51794;52.758;55.792;2022-12-07T12:33:50;12.98;;;6.00;;
65210;SDS011;51794;52.758;55.792;2022-12-07T12:36:19;12.07;;;6.10;;
65210;SDS011;51794;52.758;55.792;2022-12-07T12:46:52;13.60;;;6.38;;
65210;SDS011;51794;52.758;55.792;2022-12-07T12:57:36;19.00;;;7.90;;
65210;SDS011;51794;52.758;55.792;2022-12-07T13:00:21;15.13;;;7.65;;
65210;SDS011;51794;52.758;55.792;2022-12-07T13:02:54;14.27;;;7.50;;
65210;SDS011;51794;52.758;55.792;2022-12-07T13:05:26;11.75;;;5.63;;
65210;SDS011;51794;52.758;55.792;2022-12-07T13:08:03;11.68;;;5.00;;
65210;SDS011;51794;52.758;55.792;2022-12-07T13:10:44;11.85;;;4.57;;
65210;SDS011;51794;52.758;55.792;2022-12-07T13:23:29;10.30;;;5.82;;
65210;SDS011;51794;52.758;55.792;2022-12-07T13:26:23;15.20;;;5.25;;
65210;SDS011;51794;52.758;55.792;2022-12-07T13:28:52;10.30;;;5.07;;
65210;SDS011;51794;52.758;55.792;2022-12-07T13:34:49;17.48;;;6.88;;
65210;SDS011;51794;52.758;55.792;2022-12-07T13:36:56;15.13;;;6.13;;
65210;SDS011;51794;52.758;55.792;2022-12-07T13:39:25;14.93;;;7.10;;
65210;SDS011;51794;52.758;55.792;2022-12-07T13:41:55;16.48;;;6.53;;
65210;SDS011;51794;52.758;55.792;2022-12-07T13:44:24;17.45;;;8.07;;
65210;SDS011;51794;52.758;55.792;2022-12-07T13:47:09;18.13;;;7.85;;
65210;SDS011;51794;52.758;55.792;2022-12-07T13:49:47;14.55;;;7.45;;
65210;SDS011;51794;52.758;55.792;2022-12-07T13:55:23;17.80;;;7.97;;
65210;SDS011;51794;52.758;55.792;2022-12-07T13:57:31;18.33;;;8.13;;
65210;SDS011;51794;52.758;55.792;2022-12-07T14:00:04;23.85;;;9.68;;
65210;SDS011;51794;52.758;55.792;2022-12-07T14:02:53;29.80;;;11.73;;
65210;SDS011;51794;52.758;55.792;2022-12-07T14:05:26;38.22;;;13.85;;
65210;SDS011;51794;52.758;55.792;2022-12-07T14:08:03;20.25;;;9.88;;
65210;SDS011;51794;52.758;55.792;2022-12-07T14:15:51;26.20;;;9.40;;
65210;SDS011;51794;52.758;55.792;2022-12-07T14:18:24;21.85;;;9.98;;
65210;SDS011;51794;52.758;55.792;2022-12-07T14:23:37;27.33;;;11.20;;
65210;SDS011;51794;52.758;55.792;2022-12-07T14:26:09;23.48;;;10.65;;
65210;SDS011;51794;52.758;55.792;2022-12-07T14:28:41;18.80;;;8.70;;
65210;SDS011;51794;52.758;55.792;2022-12-07T14:31:12;36.83;;;15.77;;
65210;SDS011;51794;52.758;55.792;2022-12-07T14:33:40;36.97;;;15.35;;
65210;SDS011;51794;52.758;55.792;2022-12-07T14:36:10;40.78;;;15.00;;
65210;SDS011;51794;52.758;55.792;2022-12-07T14:38:37;45.65;;;16.92;;
65210;SDS011;51794;52.758;55.792;2022-12-07T14:41:04;25.95;;;9.82;;
65210;SDS011;51794;52.758;55.792;2022-12-07T14:43:55;35.00;;;11.75;;
65210;SDS011;51794;52.758;55.792;2022-12-07T14:46:21;30.20;;;12.02;;
65210;SDS011;51794;52.758;55.792;2022-12-07T14:48:47;33.33;;;13.82;;
65210;SDS011;51794;52.758;55.792;2022-12-07T14:51:13;40.38;;;15.35;;
65210;SDS011;51794;52.758;55.792;2022-12-07T14:53:41;34.35;;;14.05;;
65210;SDS011;51794;52.758;55.792;2022-12-07T14:56:11;40.05;;;14.55;;
65210;SDS011;51794;52.758;55.792;2022-12-07T14:58:37;57.28;;;18.92;;
65210;SDS011;51794;52.758;55.792;2022-12-07T15:01:03;44.53;;;15.02;;
65210;SDS011;51794;52.758;55.792;2022-12-07T15:03:29;56.67;;;19.48;;
65210;SDS011;51794;52.758;55.792;2022-12-07T15:05:55;61.63;;;21.70;;
65210;SDS011;51794;52.758;55.792;2022-12-07T15:08:21;58.45;;;21.05;;
65210;SDS011;51794;52.758;55.792;2022-12-07T15:10:47;48.80;;;21.05;;
65210;SDS011;51794;52.758;55.792;2022-12-07T15:13:13;40.75;;;12.85;;
65210;SDS011;51794;52.758;55.792;2022-12-07T15:15:59;36.60;;;13.52;;
65210;SDS011;51794;52.758;55.792;2022-12-07T15:18:25;14.45;;;5.97;;
65210;SDS011;51794;52.758;55.792;2022-12-07T15:20:51;42.72;;;15.98;;
65210;SDS011;51794;52.758;55.792;2022-12-07T15:23:17;21.33;;;9.38;;
65210;SDS011;51794;52.758;55.792;2022-12-07T15:25:43;14.50;;;6.07;;
65210;SDS011;51794;52.758;55.792;2022-12-07T15:28:11;13.20;;;5.28;;
65210;SDS011;51794;52.758;55.792;2022-12-07T15:30:43;38.63;;;14.45;;
65210;SDS011;51794;52.758;55.792;2022-12-07T15:33:26;34.17;;;15.48;;
65210;SDS011;51794;52.758;55.792;2022-12-07T15:35:52;20.75;;;10.35;;
65210;SDS011;51794;52.758;55.792;2022-12-07T15:38:20;26.02;;;9.10;;
65210;SDS011;51794;52.758;55.792;2022-12-07T15:40:48;27.75;;;13.27;;
65210;SDS011;51794;52.758;55.792;2022-12-07T15:43:14;12.23;;;5.00;;
65210;SDS011;51794;52.758;55.792;2022-12-07T15:45:59;19.10;;;8.10;;
65210;SDS011;51794;52.758;55.792;2022-12-07T15:48:27;27.90;;;10.73;;
65210;SDS011;51794;52.758;55.792;2022-12-07T15:50:53;25.25;;;10.43;;
65210;SDS011;51794;52.758;55.792;2022-12-07T15:53:26;34.15;;;14.23;;
65210;SDS011;51794;52.758;55.792;2022-12-07T15:55:55;36.35;;;12.93;;
65210;SDS011;51794;52.758;55.792;2022-12-07T15:58:21;19.33;;;9.05;;
65210;SDS011;51794;52.758;55.792;2022-12-07T16:00:47;33.60;;;12.85;;
65210;SDS011;51794;52.758;55.792;2022-12-07T16:03:13;24.17;;;9.07;;
65210;SDS011;51794;52.758;55.792;2022-12-07T16:05:40;25.35;;;10.43;;
65210;SDS011;51794;52.758;55.792;2022-12-07T16:08:06;26.33;;;10.55;;
65210;SDS011;51794;52.758;55.792;2022-12-07T16:10:32;32.33;;;14.48;;
65210;SDS011;51794;52.758;55.792;2022-12-07T16:12:58;15.02;;;6.63;;
65210;SDS011;51794;52.758;55.792;2022-12-07T16:15:24;15.93;;;7.53;;
65210;SDS011;51794;52.758;55.792;2022-12-07T16:17:51;17.88;;;7.00;;
65210;SDS011;51794;52.758;55.792;2022-12-07T16:20:17;8.27;;;4.30;;
65210;SDS011;51794;52.758;55.792;2022-12-07T16:22:43;16.02;;;6.38;;
65210;SDS011;51794;52.758;55.792;2022-12-07T16:25:09;14.63;;;5.18;;
65210;SDS011;51794;52.758;55.792;2022-12-07T16:27:35;17.73;;;6.93;;
65210;SDS011;51794;52.758;55.792;2022-12-07T16:30:01;12.25;;;4.75;;
65210;SDS011;51794;52.758;55.792;2022-12-07T16:32:30;12.80;;;5.50;;
65210;SDS011;51794;52.758;55.792;2022-12-07T16:34:56;18.42;;;6.32;;
65210;SDS011;51794;52.758;55.792;2022-12-07T16:37:22;13.38;;;6.15;;
65210;SDS011;51794;52.758;55.792;2022-12-07T16:39:48;10.02;;;3.75;;
65210;SDS011;51794;52.758;55.792;2022-12-07T16:42:14;22.30;;;7.85;;
65210;SDS011;51794;52.758;55.792;2022-12-07T16:44:40;32.55;;;11.80;;
65210;SDS011;51794;52.758;55.792;2022-12-07T16:47:07;34.88;;;12.63;;
65210;SDS011;51794;52.758;55.792;2022-12-07T16:49:35;36.17;;;12.57;;